Thunder radar more information blitzortung!


Löydät sääaseman tiedot myös:

European Weather Network

Finland Weather Exchange

Weather Underground

AWEKAS



Weather Underground säähistoriasivu

Päivittäin yhteenveto Heinäkuu 30, 2017 Yksiköt:  Englantilaiset    Metriset   Molemmat
« Edellinen Päivä
Seuraava Päivä »
Päivittäin Viikoittain Kuukausittain Vuosittain Mukautettu
  Korkea: Matala: Keskiarvo:
Lämpötila: TemperatureC °F 8.9 °F 15.7 °F
Kastepiste: DewpointC °F 8.2 °F 12.9 °F
Kosteus: Humidity % 67 % 83 %
Tuulen nopeus: WindSpeedKMH mph 0.0 mph 1.6 mph
Tuulenpuuska: WindSpeedGustKMH mph - -
Tuuli:- - SSW
Ilmanpaine: PressurehPa in 1004.6 in -
Sade: 0.0 in    
Historical Graphs
 
 
Taulukkotiedot Heinäkuu 30, 2017
Aika Lämpötila Kastepiste Ilmanpaine Tuuli Tuulen nopeus Tuulenpuuska Kosteus Sademäärä (tunneittain)
TemperatureC °F DewpointC °F PressurehPa in Calm     Humidity % HourlyPrecipMM in
00:00 12.1 °F 10.5 °F 1005.6 in Calm     90 % 0.0 in
00:15 11.6 °F 10.0 °F 1005.6 in Calm     90 % 0.0 in
00:30 11.4 °F 10.0 °F 1005.6 in Calm     91 % 0.0 in
00:45 11.2 °F 9.8 °F 1005.6 in Calm     91 % 0.0 in
01:00 11.0 °F 9.6 °F 1005.6 in Calm     91 % 0.0 in
01:15 10.7 °F 9.4 °F 1005.6 in Calm     92 % 0.0 in
01:30 10.3 °F 9.1 °F 1005.6 in Calm     92 % 0.0 in
01:45 10.3 °F 9.2 °F 1005.6 in Calm     93 % 0.0 in
02:00 10.1 °F 9.0 °F 1005.6 in Calm     93 % 0.0 in
02:30 9.9 °F 9.0 °F 1005.6 in Calm     94 % 0.0 in
02:45 9.8 °F 8.9 °F 1005.6 in Calm     94 % 0.0 in
03:00 9.6 °F 8.7 °F 1005.6 in Calm     94 % 0.0 in
03:15 9.6 °F 8.6 °F 1005.6 in Calm     94 % 0.0 in
03:30 9.4 °F 8.5 °F 1005.6 in Calm     94 % 0.0 in
03:45 9.6 °F 8.8 °F 1005.3 in Calm     95 % 0.0 in
04:00 9.6 °F 8.8 °F 1005.3 in Calm     95 % 0.0 in
04:15 9.5 °F 8.7 °F 1005.3 in Calm     95 % 0.0 in
04:30 9.4 °F 8.6 °F 1005.3 in Calm     95 % 0.0 in
04:45 9.2 °F 8.5 °F 1005.0 in Calm     95 % 0.0 in
05:00 8.9 °F 8.2 °F 1005.3 in Calm     95 % 0.0 in
05:15 9.0 °F 8.4 °F 1005.0 in Calm     96 % 0.0 in
05:30 9.3 °F 8.7 °F 1005.0 in Calm     96 % 0.0 in
05:45 9.3 °F 8.7 °F 1005.0 in Calm     96 % 0.0 in
06:00 9.9 °F 9.5 °F 1005.0 in Calm     97 % 0.0 in
06:15 10.9 °F 10.4 °F 1005.0 in Calm   8.0 mph 97 % 0.0 in
06:30 12.2 °F 11.9 °F 1004.6 in Calm   6.4 mph 98 % 0.0 in
06:45 12.6 °F 12.3 °F 1004.6 in SSW 3.2 mph 11.3 mph 98 % 0.0 in
07:00 12.7 °F 12.4 °F 1004.6 in SSW 3.2 mph 12.9 mph 98 % 0.0 in
07:15 12.9 °F 12.6 °F 1004.6 in SSW 3.2 mph 11.3 mph 98 % 0.0 in
07:30 13.0 °F 12.5 °F 1004.6 in SSW 3.2 mph 12.9 mph 97 % 0.0 in
07:45 13.2 °F 12.7 °F 1004.6 in SSW 4.8 mph 14.5 mph 97 % 0.0 in
08:00 13.4 °F 12.9 °F 1004.6 in SSW 3.2 mph 9.7 mph 97 % 0.0 in
08:15 13.6 °F 13.0 °F 1005.0 in SSW 1.6 mph 9.7 mph 97 % 0.0 in
08:30 13.8 °F 13.4 °F 1005.0 in SW 1.6 mph 8.0 mph 97 % 0.0 in
08:45 14.2 °F 13.7 °F 1005.0 in SSW 1.6 mph 11.3 mph 97 % 0.0 in
09:00 14.4 °F 13.6 °F 1005.0 in SSW 3.2 mph 12.9 mph 95 % 0.0 in
09:15 14.7 °F 13.7 °F 1005.0 in SW 4.8 mph 11.3 mph 94 % 0.0 in
09:30 15.6 °F 14.0 °F 1005.0 in South 1.6 mph 9.7 mph 91 % 0.0 in
09:45 16.3 °F 14.3 °F 1005.0 in South 1.6 mph 8.0 mph 88 % 0.0 in
10:00 17.1 °F 14.5 °F 1005.0 in South 1.6 mph 8.0 mph 85 % 0.0 in
10:15 17.9 °F 15.0 °F 1005.0 in South 1.6 mph 8.0 mph 83 % 0.0 in
10:30 18.7 °F 15.1 °F 1005.0 in SW 1.6 mph 9.7 mph 80 % 0.0 in
10:45 18.9 °F 14.8 °F 1005.0 in South 1.6 mph 6.4 mph 77 % 0.0 in
11:00 19.1 °F 14.7 °F 1005.0 in SSW 3.2 mph 9.7 mph 76 % 0.0 in
11:15 19.2 °F 14.9 °F 1005.0 in SSW 3.2 mph 12.9 mph 76 % 0.0 in
11:30 19.3 °F 14.9 °F 1005.3 in SSW 3.2 mph 9.7 mph 76 % 0.0 in
11:45 19.4 °F 15.1 °F 1005.3 in SSW 1.6 mph 9.7 mph 76 % 0.0 in
12:00 18.8 °F 14.9 °F 1005.3 in SSW 8.0 mph 20.9 mph 78 % 0.0 in
12:15 18.4 °F 15.1 °F 1005.3 in SSW 6.4 mph 17.7 mph 81 % 0.0 in
12:30 18.2 °F 15.3 °F 1005.3 in SSW 6.4 mph 19.3 mph 83 % 0.0 in
12:45 18.7 °F 15.3 °F 1005.3 in SSW 6.4 mph 22.5 mph 81 % 0.0 in
13:00 19.6 °F 15.9 °F 1005.3 in SSW 6.4 mph 16.1 mph 79 % 0.0 in
13:15 19.8 °F 15.3 °F 1005.3 in SSW 8.0 mph 16.1 mph 75 % 0.0 in
13:30 19.9 °F 15.4 °F 1005.0 in South 4.8 mph 17.7 mph 75 % 0.0 in
13:45 19.6 °F 15.2 °F 1005.0 in SSW 3.2 mph 9.7 mph 76 % 0.0 in
14:00 19.9 °F 15.2 °F 1005.0 in SSW 3.2 mph 9.7 mph 74 % 0.0 in
14:15 20.1 °F 14.6 °F 1005.0 in SW 4.8 mph 24.1 mph 71 % 0.0 in
14:30 20.9 °F 14.8 °F 1005.0 in SSW 4.8 mph 17.7 mph 68 % 0.0 in
14:45 21.2 °F 15.3 °F 1005.0 in SSW 8.0 mph 17.7 mph 69 % 0.0 in
15:00 21.2 °F 14.8 °F 1005.0 in SSW 6.4 mph 20.9 mph 67 % 0.0 in
15:15 21.2 °F 15.3 °F 1005.0 in SW 6.4 mph 19.3 mph 69 % 0.0 in
15:30 20.8 °F 15.4 °F 1005.0 in WSW 4.8 mph 17.7 mph 71 % 0.0 in
15:45 20.6 °F 15.1 °F 1005.0 in SSW 3.2 mph 12.9 mph 71 % 0.0 in
16:00 20.1 °F 15.1 °F 1005.0 in SW 3.2 mph 12.9 mph 73 % 0.0 in
16:15 19.8 °F 15.1 °F 1005.0 in SW 1.6 mph 12.9 mph 74 % 0.0 in
16:30 19.9 °F 15.3 °F 1005.0 in SSW 1.6 mph 4.8 mph 75 % 0.0 in
16:45 20.1 °F 15.5 °F 1004.6 in SW 1.6 mph 6.4 mph 75 % 0.0 in
17:00 20.4 °F 15.4 °F 1004.6 in Calm     73 % 0.0 in
17:15 20.8 °F 14.9 °F 1004.6 in Calm     69 % 0.0 in
17:30 21.3 °F 15.1 °F 1004.6 in Calm     68 % 0.0 in
17:45 21.7 °F 15.3 °F 1004.6 in Calm     67 % 0.0 in
18:00 21.4 °F 15.3 °F 1004.6 in Calm     68 % 0.0 in
18:15 20.9 °F 15.3 °F 1004.6 in Calm     70 % 0.0 in
18:30 20.7 °F 15.3 °F 1004.6 in Calm     71 % 0.0 in
18:45 20.8 °F 15.4 °F 1004.6 in Calm     71 % 0.0 in
19:00 20.2 °F 15.2 °F 1004.6 in Calm     73 % 0.0 in
19:15 20.1 °F 15.5 °F 1005.0 in Calm     75 % 0.0 in
19:30 20.0 °F 15.2 °F 1005.0 in Calm     74 % 0.0 in
19:45 19.7 °F 15.4 °F 1004.6 in Calm     76 % 0.0 in
20:00 19.2 °F 15.3 °F 1004.6 in Calm     78 % 0.0 in
20:15 19.0 °F 15.3 °F 1004.6 in Calm     79 % 0.0 in
20:30 18.9 °F 14.4 °F 1005.0 in Calm     75 % 0.0 in
20:45 18.8 °F 14.0 °F 1005.0 in Calm     74 % 0.0 in
21:00 18.4 °F 14.1 °F 1005.0 in Calm     76 % 0.0 in
21:15 18.2 °F 14.1 °F 1005.0 in Calm     77 % 0.0 in
21:30 17.9 °F 14.2 °F 1005.0 in Calm     79 % 0.0 in
21:45 17.7 °F 14.2 °F 1005.0 in Calm     80 % 0.0 in
22:00 17.3 °F 14.2 °F 1005.0 in Calm     82 % 0.0 in
22:15 16.8 °F 13.9 °F 1005.0 in Calm     83 % 0.0 in
22:30 16.4 °F 13.9 °F 1005.0 in Calm     85 % 0.0 in
22:45 15.7 °F 13.3 °F 1005.0 in Calm     86 % 0.0 in
23:00 14.9 °F 12.9 °F 1005.0 in Calm     88 % 0.0 in
23:15 14.3 °F 12.7 °F 1005.0 in Calm     90 % 0.0 in
23:30 13.8 °F 12.4 °F 1005.0 in Calm     91 % 0.0 in
23:45 13.3 °F 12.1 °F 1005.0 in Calm     92 % 0.0 in
Esan sääasema
Terveisin Weather Underground - 2.75 mb

Alkuperäinen skripti  Jim McMurry - jmcmurry@mwt.net Sovitettu myös templatelle  Wim van der Kuil - Leuven-Template.eu

Laitteet joita käytämme:

Sääasema
Davis VP2

Sääasemaohjelma
Cumulus

Sääaseman tietokone
Asus EeePC

Palveluntarjoaja
Suncomet

Davis VP2

Cumulus

Asus EeePC

Suncomet